Time;durP1;ratioP1;P1;durP2;ratioP2;P2;SDS_P1;SDS_P2;PMS_P1;PMS_P2;Temp;Humidity;BMP_temperature;BMP_pressure;BME280_temperature;BME280_humidity;BME280_pressure;Samples;Min_cycle;Max_cycle;Signal;HPM_P1;HPM_P2
2021/12/09 00:01:03;;;;;;;16.60;5.22;;;5.10;99.90;;;;;;5104603;28;20369;-72
2021/12/09 00:03:32;;;;;;;15.60;5.15;;;5.10;99.90;;;;;;5105275;28;20052;-72
2021/12/09 00:06:00;;;;;;;19.33;5.75;;;5.10;99.90;;;;;;5094404;28;20321;-72
2021/12/09 00:08:28;;;;;;;14.73;6.03;;;5.10;99.90;;;;;;5094597;28;20020;-75
2021/12/09 00:10:55;;;;;;;14.05;4.63;;;5.00;99.90;;;;;;5094042;28;20016;-72
2021/12/09 00:13:22;;;;;;;15.30;4.88;;;5.10;99.90;;;;;;5094671;28;20494;-76
2021/12/09 00:15:49;;;;;;;10.93;5.10;;;5.00;99.90;;;;;;5094715;28;20035;-74
2021/12/09 00:18:15;;;;;;;17.73;4.72;;;5.00;99.90;;;;;;5094481;28;20056;-72
2021/12/09 00:20:41;;;;;;;13.50;4.97;;;5.00;99.90;;;;;;5094072;28;20059;-75
2021/12/09 00:23:10;;;;;;;13.80;4.90;;;5.00;99.90;;;;;;5076421;28;20070;-74
2021/12/09 00:25:36;;;;;;;18.25;5.72;;;5.00;99.90;;;;;;5099761;28;20016;-73
2021/12/09 00:28:04;;;;;;;16.02;5.53;;;5.00;99.90;;;;;;5100071;28;20024;-75
2021/12/09 00:30:30;;;;;;;18.63;6.20;;;4.90;99.90;;;;;;5094266;28;20027;-72
2021/12/09 00:32:57;;;;;;;11.07;4.43;;;4.90;99.90;;;;;;5093125;28;20467;-72
2021/12/09 00:35:28;;;;;;;12.68;5.13;;;4.90;99.90;;;;;;5093618;28;20052;-72
2021/12/09 00:37:59;;;;;;;15.43;5.07;;;4.80;99.90;;;;;;5094161;28;20016;-72
2021/12/09 00:40:25;;;;;;;15.75;6.20;;;4.80;99.90;;;;;;5093944;28;20434;-72
2021/12/09 00:42:51;;;;;;;17.38;5.97;;;4.80;99.90;;;;;;5092668;28;20024;-72
2021/12/09 00:45:17;;;;;;;17.33;5.25;;;4.70;99.90;;;;;;5094578;28;20024;-73
2021/12/09 00:47:44;;;;;;;15.30;6.00;;;4.70;99.90;;;;;;5093920;28;20032;-72
2021/12/09 00:50:10;;;;;;;21.13;6.90;;;4.60;99.90;;;;;;5093598;28;20030;-74
2021/12/09 00:52:36;;;;;;;20.55;6.88;;;4.60;99.90;;;;;;5094711;28;20032;-74
2021/12/09 00:55:05;;;;;;;15.60;5.55;;;4.50;99.90;;;;;;5093890;28;20133;-72
2021/12/09 00:57:31;;;;;;;8.68;4.53;;;4.50;99.90;;;;;;5092266;28;20066;-72
2021/12/09 00:59:58;;;;;;;17.40;6.50;;;4.40;99.90;;;;;;5093660;28;20096;-73
2021/12/09 01:02:24;;;;;;;21.38;6.75;;;4.40;99.90;;;;;;5093957;28;20020;-73
2021/12/09 01:04:51;;;;;;;17.30;6.47;;;4.30;99.90;;;;;;5097691;28;20046;-72
2021/12/09 01:07:18;;;;;;;15.15;5.90;;;4.20;99.90;;;;;;5106342;28;20030;-72
2021/12/09 01:09:43;;;;;;;20.38;6.60;;;4.20;99.90;;;;;;5108411;28;20106;-73
2021/12/09 01:12:10;;;;;;;25.00;7.28;;;4.20;99.90;;;;;;5093739;28;20468;-73
2021/12/09 01:14:37;;;;;;;20.02;7.47;;;4.20;99.90;;;;;;5092903;28;20039;-73
2021/12/09 01:17:08;;;;;;;18.73;6.38;;;4.20;99.90;;;;;;5094643;28;20026;-75
2021/12/09 01:19:34;;;;;;;19.63;6.70;;;4.10;99.90;;;;;;5100708;28;20440;-75
2021/12/09 01:22:00;;;;;;;17.80;6.18;;;4.10;99.90;;;;;;5093415;28;20028;-71
2021/12/09 01:24:26;;;;;;;25.27;7.18;;;4.10;99.90;;;;;;5107343;28;20023;-74
2021/12/09 01:26:51;;;;;;;22.02;7.18;;;4.10;99.90;;;;;;5114299;28;20486;-76
2021/12/09 01:29:21;;;;;;;18.85;5.85;;;4.00;99.90;;;;;;5113914;28;20035;-74
2021/12/09 01:31:56;;;;;;;14.60;4.65;;;4.00;99.90;;;;;;5114022;28;20024;-74
2021/12/09 01:34:23;;;;;;;14.02;5.70;;;4.00;99.90;;;;;;5099906;28;20476;-73
2021/12/09 01:36:50;;;;;;;15.43;5.68;;;4.00;99.90;;;;;;5092346;28;20028;-73
2021/12/09 01:39:16;;;;;;;16.63;5.30;;;4.00;99.90;;;;;;5093782;28;20126;-73
2021/12/09 01:41:42;;;;;;;17.27;5.60;;;4.00;99.90;;;;;;5093456;28;20103;-73
2021/12/09 01:44:08;;;;;;;16.27;6.85;;;4.00;99.90;;;;;;5075654;28;20051;-73
2021/12/09 01:46:33;;;;;;;15.20;5.28;;;4.00;99.90;;;;;;5099123;28;20049;-74
2021/12/09 01:48:59;;;;;;;18.35;5.93;;;4.00;99.90;;;;;;5113680;28;20063;-74
2021/12/09 01:51:25;;;;;;;21.73;7.97;;;4.00;99.90;;;;;;5113604;28;20024;-74
2021/12/09 01:53:51;;;;;;;26.23;8.05;;;4.00;99.90;;;;;;5096783;28;20352;-72
2021/12/09 01:56:24;;;;;;;20.23;6.97;;;4.00;99.90;;;;;;5092777;28;20073;-74
2021/12/09 01:58:53;;;;;;;18.65;7.10;;;4.00;99.90;;;;;;5092880;28;20028;-75
2021/12/09 02:01:19;;;;;;;19.33;7.35;;;4.00;99.90;;;;;;5093017;28;20028;-72
2021/12/09 02:03:45;;;;;;;17.38;6.40;;;4.00;99.90;;;;;;5092136;28;20059;-75
2021/12/09 02:06:11;;;;;;;19.45;7.47;;;3.90;99.90;;;;;;5091001;28;20055;-75
2021/12/09 02:08:37;;;;;;;11.05;5.35;;;3.90;99.90;;;;;;5092290;28;20031;-74
2021/12/09 02:11:03;;;;;;;16.80;5.75;;;3.90;99.90;;;;;;5091671;28;20036;-73
2021/12/09 02:13:30;;;;;;;26.30;8.30;;;3.90;99.90;;;;;;5091364;28;20159;-75
2021/12/09 02:15:56;;;;;;;22.85;7.60;;;3.90;99.90;;;;;;5090309;28;20029;-75
2021/12/09 02:18:23;;;;;;;20.95;7.43;;;3.90;99.90;;;;;;5092043;28;20476;-71
2021/12/09 02:21:10;;;;;;;23.23;7.40;;;3.90;99.90;;;;;;5091548;28;20472;-71
2021/12/09 02:23:36;;;;;;;15.18;5.80;;;3.80;99.90;;;;;;5100644;28;20075;-74
2021/12/09 02:26:03;;;;;;;17.60;6.00;;;3.90;99.90;;;;;;5093450;28;20031;-72
2021/12/09 02:28:29;;;;;;;27.90;8.82;;;3.80;99.90;;;;;;5094607;28;20468;-71
2021/12/09 02:30:55;;;;;;;21.65;7.00;;;3.80;99.90;;;;;;5091964;28;20020;-72
2021/12/09 02:33:21;;;;;;;22.55;7.55;;;3.80;99.90;;;;;;5098062;28;20084;-74
2021/12/09 02:35:47;;;;;;;19.95;8.30;;;3.80;99.90;;;;;;5112104;28;20047;-76
2021/12/09 02:38:12;;;;;;;16.35;5.80;;;3.80;99.90;;;;;;5091740;28;20372;-70
2021/12/09 02:40:38;;;;;;;14.85;6.97;;;3.70;99.90;;;;;;5091529;28;20035;-71
2021/12/09 02:43:07;;;;;;;21.52;8.48;;;3.80;99.90;;;;;;5092457;28;20016;-73
2021/12/09 02:45:33;;;;;;;22.70;7.65;;;3.70;99.90;;;;;;5091830;28;20035;-73
2021/12/09 02:47:59;;;;;;;25.75;9.15;;;3.80;99.90;;;;;;5091639;28;20066;-71
2021/12/09 02:50:24;;;;;;;25.80;9.93;;;3.70;99.90;;;;;;5073405;28;20031;-71
2021/12/09 02:52:50;;;;;;;26.35;7.68;;;3.70;99.90;;;;;;5093791;28;20024;-76
2021/12/09 02:55:16;;;;;;;25.38;9.55;;;3.70;99.90;;;;;;5091114;28;20032;-74
2021/12/09 02:57:43;;;;;;;21.10;8.13;;;3.70;99.90;;;;;;5092168;28;20074;-71
2021/12/09 03:00:10;;;;;;;12.07;5.13;;;3.70;99.90;;;;;;5095113;28;20036;-70
2021/12/09 03:02:37;;;;;;;18.42;7.22;;;3.70;99.90;;;;;;5100499;28;20024;-72
2021/12/09 03:05:07;;;;;;;26.92;8.85;;;3.70;99.90;;;;;;5057477;28;1089552;-74
2021/12/09 03:07:37;;;;;;;18.70;7.78;;;3.70;99.90;;;;;;5096076;28;20360;-75
2021/12/09 03:10:23;;;;;;;18.95;6.40;;;3.70;99.90;;;;;;5095118;28;20058;-75
2021/12/09 03:12:52;;;;;;;19.73;7.30;;;3.70;99.90;;;;;;5106097;28;20352;-71
2021/12/09 03:15:18;;;;;;;20.00;7.93;;;3.70;99.90;;;;;;5116486;28;20028;-74
2021/12/09 03:17:44;;;;;;;25.45;9.48;;;3.80;99.90;;;;;;5116338;28;20077;-71
2021/12/09 03:20:11;;;;;;;25.48;8.52;;;3.80;99.90;;;;;;5116122;28;20085;-74
2021/12/09 03:22:38;;;;;;;23.73;9.07;;;4.00;99.90;;;;;;5107443;28;20020;-73
2021/12/09 03:25:07;;;;;;;21.23;7.82;;;4.00;99.90;;;;;;5080136;28;20740;-74
2021/12/09 03:27:32;;;;;;;20.60;5.35;;;4.00;99.90;;;;;;5116312;28;20027;-75
2021/12/09 03:29:58;;;;;;;16.30;5.70;;;4.10;99.90;;;;;;5107955;28;20020;-72
2021/12/09 03:32:24;;;;;;;21.52;8.20;;;4.10;99.90;;;;;;5101634;28;20479;-72
2021/12/09 03:34:50;;;;;;;23.95;7.13;;;4.20;99.90;;;;;;5114857;28;20031;-74
2021/12/09 03:37:21;;;;;;;21.88;8.70;;;4.20;99.90;;;;;;5115857;28;20019;-75
2021/12/09 03:39:47;;;;;;;21.75;7.82;;;4.30;99.90;;;;;;5116203;28;20122;-74
2021/12/09 03:42:15;;;;;;;31.42;7.47;;;4.30;99.90;;;;;;5111620;28;20146;-75
2021/12/09 03:44:43;;;;;;;20.20;7.28;;;4.20;99.90;;;;;;5095292;28;20039;-77
2021/12/09 03:47:12;;;;;;;11.70;5.20;;;4.20;99.90;;;;;;5095398;28;20028;-76
2021/12/09 03:49:41;;;;;;;26.00;7.07;;;4.10;99.90;;;;;;5094657;28;20032;-75
2021/12/09 03:52:08;;;;;;;22.30;6.88;;;4.10;99.90;;;;;;5106339;28;20107;-73
2021/12/09 03:54:33;;;;;;;19.33;6.68;;;4.00;99.90;;;;;;5115479;28;20471;-75
2021/12/09 03:56:59;;;;;;;20.45;7.30;;;3.90;99.90;;;;;;5097452;28;20119;-75
2021/12/09 03:59:25;;;;;;;22.92;8.48;;;3.90;99.90;;;;;;5093491;28;20491;-75
2021/12/09 04:01:51;;;;;;;15.35;6.40;;;3.80;99.90;;;;;;5082182;28;20463;-74
2021/12/09 04:04:17;;;;;;;15.07;5.15;;;3.80;99.90;;;;;;5094596;28;20051;-72
2021/12/09 04:06:43;;;;;;;18.23;6.65;;;3.80;99.90;;;;;;5095286;28;20036;-73
2021/12/09 04:09:11;;;;;;;27.08;8.88;;;3.80;99.90;;;;;;5093939;28;20038;-75
2021/12/09 04:11:37;;;;;;;15.80;6.38;;;3.80;99.90;;;;;;5095057;28;20024;-75
2021/12/09 04:14:05;;;;;;;19.45;7.13;;;3.70;99.90;;;;;;5094848;28;20051;-75
2021/12/09 04:16:31;;;;;;;15.52;5.72;;;3.70;99.90;;;;;;5095032;28;20512;-73
2021/12/09 04:18:57;;;;;;;21.02;7.50;;;3.60;99.90;;;;;;5106820;28;20098;-74
2021/12/09 04:21:24;;;;;;;15.93;7.53;;;3.60;99.90;;;;;;5098851;28;20039;-75
2021/12/09 04:23:50;;;;;;;27.33;8.02;;;3.60;99.90;;;;;;5115199;28;20032;-75
2021/12/09 04:26:15;;;;;;;18.77;7.85;;;3.60;99.90;;;;;;5114738;28;20031;-73
2021/12/09 04:28:42;;;;;;;20.90;8.20;;;3.60;99.90;;;;;;5114523;28;20028;-73
2021/12/09 04:31:08;;;;;;;21.77;8.02;;;3.60;99.90;;;;;;5112733;28;20019;-75
2021/12/09 04:33:34;;;;;;;21.48;7.28;;;3.60;99.90;;;;;;5093954;28;20353;-71
2021/12/09 04:36:00;;;;;;;16.80;6.10;;;3.60;99.90;;;;;;5094454;28;20111;-75
2021/12/09 04:38:26;;;;;;;28.95;10.50;;;3.60;99.90;;;;;;5094399;28;20064;-75
2021/12/09 04:40:52;;;;;;;25.02;7.95;;;3.60;99.90;;;;;;5094132;28;20044;-75
2021/12/09 04:43:18;;;;;;;20.58;9.32;;;3.60;99.90;;;;;;5094341;28;20077;-72
2021/12/09 04:45:44;;;;;;;18.83;8.52;;;3.60;99.90;;;;;;5093905;28;20027;-73
2021/12/09 04:48:10;;;;;;;26.08;8.35;;;3.70;99.90;;;;;;5093781;28;20036;-76
2021/12/09 04:50:37;;;;;;;20.27;8.63;;;3.60;99.90;;;;;;5093126;28;20096;-71
2021/12/09 04:53:04;;;;;;;25.02;8.88;;;3.60;99.90;;;;;;5114798;28;20518;-69
2021/12/09 04:55:29;;;;;;;25.63;8.40;;;3.60;99.90;;;;;;5113099;28;20028;-74
2021/12/09 04:57:55;;;;;;;25.45;8.43;;;3.60;99.90;;;;;;5100260;28;20028;-72
2021/12/09 05:00:25;;;;;;;25.48;7.07;;;3.50;99.90;;;;;;5093667;28;20035;-74
2021/12/09 05:05:24;;;;;;;17.08;6.15;;;3.50;99.90;;;;;;5114335;28;20035;-72
2021/12/09 05:07:50;;;;;;;22.73;6.97;;;3.50;99.90;;;;;;5112175;28;20016;-75
2021/12/09 05:10:16;;;;;;;24.85;8.13;;;3.50;99.90;;;;;;5108156;28;20024;-74
2021/12/09 05:12:41;;;;;;;22.52;8.05;;;3.40;99.90;;;;;;5075899;28;20024;-73
2021/12/09 05:15:08;;;;;;;30.33;8.90;;;3.40;99.90;;;;;;5093344;28;20146;-74
2021/12/09 05:17:34;;;;;;;17.02;7.45;;;3.40;99.90;;;;;;5103837;28;20024;-73
2021/12/09 05:20:00;;;;;;;17.35;6.18;;;3.40;99.90;;;;;;5090251;28;20054;-73
2021/12/09 05:22:25;;;;;;;24.30;7.60;;;3.40;99.90;;;;;;5105968;28;20023;-74
2021/12/09 05:24:52;;;;;;;26.67;6.00;;;3.40;99.90;;;;;;5114165;28;20027;-72
2021/12/09 05:27:18;;;;;;;23.33;7.00;;;3.40;99.90;;;;;;5105659;28;20481;-73
2021/12/09 05:29:44;;;;;;;23.30;8.07;;;3.40;99.90;;;;;;5093432;28;20024;-74
2021/12/09 05:32:13;;;;;;;19.05;7.28;;;3.40;99.90;;;;;;5093624;28;20459;-74
2021/12/09 05:34:44;;;;;;;23.30;6.93;;;3.40;99.90;;;;;;5093519;28;20023;-75
2021/12/09 05:37:15;;;;;;;24.40;9.02;;;3.40;99.90;;;;;;5094276;28;20016;-74
2021/12/09 05:39:43;;;;;;;24.60;9.02;;;3.40;99.90;;;;;;5075389;28;20110;-72
2021/12/09 05:42:10;;;;;;;28.27;8.93;;;3.40;99.90;;;;;;5093046;28;20059;-74
2021/12/09 05:44:37;;;;;;;18.95;6.43;;;3.40;99.90;;;;;;5093458;28;20024;-72
2021/12/09 05:47:05;;;;;;;23.35;7.47;;;3.30;99.90;;;;;;5102037;28;20051;-73
2021/12/09 05:49:32;;;;;;;26.90;9.15;;;3.30;99.90;;;;;;5111295;28;20028;-73
2021/12/09 05:51:58;;;;;;;25.90;8.55;;;3.30;99.90;;;;;;5093268;28;20016;-75
2021/12/09 05:54:24;;;;;;;22.77;7.05;;;3.30;99.90;;;;;;5092434;28;20059;-74
2021/12/09 05:56:50;;;;;;;19.90;6.78;;;3.30;99.90;;;;;;5092645;28;20035;-73
2021/12/09 05:59:16;;;;;;;23.88;8.07;;;3.30;99.90;;;;;;5093252;28;20361;-72
2021/12/09 06:01:41;;;;;;;28.35;8.48;;;3.30;99.90;;;;;;5093509;28;20035;-74
2021/12/09 06:04:08;;;;;;;17.52;6.78;;;3.30;99.90;;;;;;5085649;28;20075;-71
2021/12/09 06:06:35;;;;;;;25.40;8.90;;;3.30;99.90;;;;;;5068521;28;20017;-71
2021/12/09 06:09:02;;;;;;;23.42;8.02;;;3.30;99.90;;;;;;5051755;28;20384;-73
2021/12/09 06:11:28;;;;;;;17.02;5.85;;;3.30;99.90;;;;;;5052076;28;20520;-74
2021/12/09 06:13:54;;;;;;;22.20;8.10;;;3.30;99.90;;;;;;5052684;28;20095;-72
2021/12/09 06:16:20;;;;;;;21.05;6.25;;;3.30;99.90;;;;;;5068804;28;20099;-75
2021/12/09 06:18:46;;;;;;;23.77;8.20;;;3.30;99.90;;;;;;5067336;28;20048;-72
2021/12/09 06:21:12;;;;;;;29.33;8.75;;;3.30;99.90;;;;;;5062407;28;20114;-74
2021/12/09 06:23:38;;;;;;;19.02;6.72;;;3.30;99.90;;;;;;5075504;28;20021;-73
2021/12/09 06:26:06;;;;;;;20.02;6.53;;;3.30;99.90;;;;;;5050988;28;20469;-75
2021/12/09 06:28:32;;;;;;;14.07;5.32;;;3.30;99.90;;;;;;5032969;28;20118;-72
2021/12/09 06:30:58;;;;;;;25.27;7.80;;;3.30;99.90;;;;;;5032655;28;20029;-75
2021/12/09 06:33:24;;;;;;;29.50;8.30;;;3.30;99.90;;;;;;5035629;28;20370;-72
2021/12/09 06:35:50;;;;;;;17.08;5.90;;;3.40;99.90;;;;;;5059804;28;20032;-75
2021/12/09 06:38:16;;;;;;;20.27;6.05;;;3.40;99.90;;;;;;5061133;28;20053;-71
2021/12/09 06:40:43;;;;;;;21.83;6.38;;;3.50;99.90;;;;;;5055771;28;20090;-74
2021/12/09 06:43:11;;;;;;;23.92;7.18;;;3.60;99.90;;;;;;5072071;28;20027;-73
2021/12/09 06:45:37;;;;;;;22.48;7.07;;;3.60;99.90;;;;;;5076265;28;20029;-75
2021/12/09 06:48:03;;;;;;;13.20;4.55;;;3.70;99.90;;;;;;5059380;28;20480;-74
2021/12/09 06:50:29;;;;;;;13.95;4.45;;;3.80;99.90;;;;;;5066239;28;20084;-73
2021/12/09 06:52:54;;;;;;;19.70;6.18;;;3.80;99.90;;;;;;5091680;28;20373;-75
2021/12/09 06:55:21;;;;;;;27.20;6.25;;;3.80;99.90;;;;;;5076286;28;20040;-73
2021/12/09 06:57:47;;;;;;;15.00;4.50;;;3.90;99.90;;;;;;5062268;28;20053;-73
2021/12/09 07:00:17;;;;;;;19.08;5.00;;;3.90;99.90;;;;;;5056082;28;20076;-73
2021/12/09 07:02:44;;;;;;;18.75;5.07;;;4.00;99.90;;;;;;5056234;28;20522;-74
2021/12/09 07:05:11;;;;;;;23.23;6.80;;;4.00;99.90;;;;;;5095783;28;20040;-74
2021/12/09 07:07:38;;;;;;;16.10;5.60;;;4.10;99.90;;;;;;5107016;28;20027;-75
2021/12/09 07:10:05;;;;;;;22.23;4.60;;;4.10;99.90;;;;;;5113925;28;20102;-72
2021/12/09 07:12:34;;;;;;;17.40;4.65;;;4.10;99.90;;;;;;5096183;28;20029;-73
2021/12/09 07:15:00;;;;;;;25.40;6.10;;;4.10;99.90;;;;;;5094760;28;20020;-72
2021/12/09 07:17:25;;;;;;;16.70;5.03;;;4.10;99.90;;;;;;5098043;28;20028;-74
2021/12/09 07:19:51;;;;;;;11.95;3.90;;;4.20;99.90;;;;;;5111559;28;20038;-72
2021/12/09 07:22:17;;;;;;;15.02;4.70;;;4.30;99.90;;;;;;5116026;28;20106;-76
2021/12/09 07:24:43;;;;;;;21.83;6.43;;;4.30;99.90;;;;;;5115157;28;20027;-73
2021/12/09 07:27:08;;;;;;;22.85;7.45;;;4.30;99.90;;;;;;5096390;28;20497;-72
2021/12/09 07:29:39;;;;;;;16.90;4.95;;;4.30;99.90;;;;;;5095872;28;20028;-75
2021/12/09 07:32:05;;;;;;;20.40;5.57;;;4.30;99.90;;;;;;5096041;28;20077;-75
2021/12/09 07:34:31;;;;;;;12.07;3.90;;;4.30;99.90;;;;;;5095436;28;20028;-74
2021/12/09 07:37:03;;;;;;;22.13;7.03;;;4.30;99.90;;;;;;5097355;28;20024;-73
2021/12/09 07:39:30;;;;;;;28.02;6.70;;;4.30;99.90;;;;;;5115980;28;20031;-72
2021/12/09 07:41:56;;;;;;;22.75;6.22;;;4.40;99.90;;;;;;5115754;28;20034;-75
2021/12/09 07:44:23;;;;;;;20.48;6.40;;;4.40;99.90;;;;;;5095630;28;20114;-75
2021/12/09 07:46:48;;;;;;;28.02;6.93;;;4.40;99.90;;;;;;5084805;28;20020;-73
2021/12/09 07:49:15;;;;;;;18.67;6.03;;;4.30;99.90;;;;;;5096607;28;20148;-75
2021/12/09 07:51:41;;;;;;;23.42;5.45;;;4.30;99.90;;;;;;5098113;28;20103;-74
2021/12/09 07:54:07;;;;;;;15.45;4.00;;;4.30;99.90;;;;;;5092938;28;20024;-73
2021/12/09 07:56:33;;;;;;;17.50;5.38;;;4.30;99.90;;;;;;5088153;28;20024;-76
2021/12/09 07:58:59;;;;;;;23.88;7.25;;;4.30;99.90;;;;;;5094617;28;20022;-72
2021/12/09 08:01:25;;;;;;;20.98;6.32;;;4.30;99.90;;;;;;5094750;28;20012;-72
2021/12/09 08:03:50;;;;;;;19.73;5.53;;;4.30;99.90;;;;;;5094528;28;20518;-75
2021/12/09 08:06:16;;;;;;;17.77;5.57;;;4.30;99.90;;;;;;5102369;28;20460;-75
2021/12/09 08:08:42;;;;;;;19.25;5.82;;;4.30;99.90;;;;;;5103647;28;20035;-71
2021/12/09 08:11:11;;;;;;;23.35;7.15;;;4.30;99.90;;;;;;5114505;28;20104;-73
2021/12/09 08:13:51;;;;;;;22.10;6.97;;;4.40;99.90;;;;;;5100673;28;20111;-73
2021/12/09 08:16:17;;;;;;;23.55;7.53;;;4.40;99.90;;;;;;5093445;28;20016;-73
2021/12/09 08:19:04;;;;;;;17.55;6.30;;;4.40;99.90;;;;;;5092719;28;20119;-72
2021/12/09 08:21:33;;;;;;;22.05;6.75;;;4.50;99.90;;;;;;5094822;28;20148;-76
2021/12/09 08:23:59;;;;;;;15.82;5.65;;;4.50;99.90;;;;;;5094652;28;20027;-74
2021/12/09 08:26:25;;;;;;;26.70;7.88;;;4.50;99.90;;;;;;5094609;28;20020;-73
2021/12/09 08:28:51;;;;;;;14.77;5.43;;;4.60;99.90;;;;;;5094104;28;20028;-76
2021/12/09 08:31:16;;;;;;;18.15;5.22;;;4.60;99.90;;;;;;5076292;28;20478;-75
2021/12/09 08:33:42;;;;;;;21.45;6.60;;;4.60;99.90;;;;;;5076590;28;20024;-72
2021/12/09 08:36:08;;;;;;;18.05;5.60;;;4.60;99.90;;;;;;5093581;28;20371;-72
2021/12/09 08:38:35;;;;;;;18.27;6.13;;;4.60;99.90;;;;;;5076250;28;20028;-74
2021/12/09 08:41:02;;;;;;;26.65;7.65;;;4.60;99.90;;;;;;5094219;28;20036;-72
2021/12/09 08:43:28;;;;;;;24.10;8.02;;;4.60;99.90;;;;;;5094162;28;20020;-74
2021/12/09 08:45:53;;;;;;;17.77;6.20;;;4.70;99.90;;;;;;5094399;28;20039;-74
2021/12/09 08:48:21;;;;;;;23.13;8.25;;;4.70;99.90;;;;;;5075652;28;20028;-74
2021/12/09 08:50:47;;;;;;;22.80;7.78;;;4.80;99.90;;;;;;5094235;28;20024;-74
2021/12/09 08:53:16;;;;;;;26.70;8.10;;;4.90;99.90;;;;;;5094236;28;20043;-72
2021/12/09 08:55:43;;;;;;;18.15;6.90;;;4.90;99.90;;;;;;5092336;28;20024;-73
2021/12/09 08:58:10;;;;;;;29.42;9.07;;;5.00;99.90;;;;;;5093957;28;20078;-74
2021/12/09 09:00:38;;;;;;;22.58;8.20;;;5.00;99.90;;;;;;5092726;28;20036;-75
2021/12/09 09:03:04;;;;;;;20.45;7.90;;;5.10;99.90;;;;;;5093882;28;20069;-73
2021/12/09 09:05:32;;;;;;;21.13;7.68;;;5.20;99.90;;;;;;5093804;28;20386;-73
2021/12/09 09:07:58;;;;;;;29.58;9.73;;;5.30;99.90;;;;;;5092556;28;20024;-75
2021/12/09 09:10:26;;;;;;;22.85;8.73;;;5.30;99.90;;;;;;5093154;28;20031;-73
2021/12/09 09:12:53;;;;;;;23.17;8.45;;;5.40;99.90;;;;;;5093919;28;20471;-74
2021/12/09 09:15:21;;;;;;;20.17;7.63;;;5.40;99.90;;;;;;5093757;28;20024;-74
2021/12/09 09:17:48;;;;;;;29.10;9.85;;;5.40;99.90;;;;;;5093549;28;20081;-76
2021/12/09 09:20:16;;;;;;;19.08;7.40;;;5.40;99.90;;;;;;5075307;28;20043;-75
2021/12/09 09:22:42;;;;;;;16.75;6.57;;;5.50;99.90;;;;;;5094076;28;20027;-74
2021/12/09 09:25:11;;;;;;;20.17;7.38;;;5.60;99.90;;;;;;5093307;28;20034;-75
2021/12/09 09:27:37;;;;;;;24.15;8.23;;;5.60;99.90;;;;;;5093458;28;20016;-76
2021/12/09 09:30:07;;;;;;;20.90;7.90;;;5.60;99.90;;;;;;5093560;28;20016;-73
2021/12/09 09:32:33;;;;;;;27.05;8.68;;;5.60;99.90;;;;;;5093444;28;20020;-74
2021/12/09 09:34:59;;;;;;;26.23;10.05;;;5.60;99.90;;;;;;5093321;28;20320;-74
2021/12/09 09:37:25;;;;;;;18.85;7.03;;;5.60;99.90;;;;;;5093406;28;20110;-72
2021/12/09 09:39:50;;;;;;;26.80;9.18;;;5.50;99.90;;;;;;5092199;28;20100;-75
2021/12/09 09:42:34;;;;;;;22.15;8.80;;;5.50;99.90;;;;;;5091804;28;20032;-76
2021/12/09 09:45:00;;;;;;;23.98;8.75;;;5.50;99.90;;;;;;5093231;28;20317;-73
2021/12/09 09:47:28;;;;;;;25.48;8.88;;;5.50;99.90;;;;;;5093001;28;20024;-73
2021/12/09 09:49:56;;;;;;;33.85;9.80;;;5.50;99.90;;;;;;5093520;28;20024;-72
2021/12/09 09:52:22;;;;;;;20.55;8.48;;;5.60;99.90;;;;;;5091968;28;20020;-76
2021/12/09 09:54:49;;;;;;;19.52;7.50;;;5.60;99.90;;;;;;5092957;28;20111;-73
2021/12/09 09:57:14;;;;;;;25.25;10.13;;;5.60;99.90;;;;;;5093015;28;20036;-72
2021/12/09 09:59:41;;;;;;;30.45;9.50;;;5.70;99.90;;;;;;5091991;28;20046;-75
2021/12/09 10:02:10;;;;;;;26.23;9.85;;;5.70;99.90;;;;;;5093551;28;20024;-70
2021/12/09 10:04:47;;;;;;;25.63;8.93;;;5.70;99.90;;;;;;5092825;28;20545;-74
2021/12/09 10:07:16;;;;;;;26.73;10.30;;;5.80;99.90;;;;;;5093194;28;20422;-70
2021/12/09 10:09:44;;;;;;;19.88;8.50;;;5.80;99.90;;;;;;5097617;28;20028;-71
2021/12/09 10:12:12;;;;;;;33.72;12.40;;;5.80;99.90;;;;;;5097281;28;20125;-71
2021/12/09 10:14:37;;;;;;;27.45;12.13;;;5.80;99.90;;;;;;5096881;28;20020;-71
2021/12/09 10:17:10;;;;;;;24.45;9.18;;;5.90;99.90;;;;;;5095655;28;20456;-71
2021/12/09 10:19:52;;;;;;;27.83;10.02;;;5.90;99.90;;;;;;5088030;28;20046;-73
2021/12/09 10:22:34;;;;;;;34.30;12.13;;;5.90;99.90;;;;;;5117358;28;20081;-73
2021/12/09 10:25:03;;;;;;;26.83;9.00;;;5.90;99.90;;;;;;5094893;28;20048;-72
2021/12/09 10:27:33;;;;;;;28.70;10.55;;;6.00;99.90;;;;;;5096445;28;20066;-71
2021/12/09 10:30:13;;;;;;;28.23;10.75;;;6.00;99.90;;;;;;5097547;28;20036;-71
2021/12/09 10:32:41;;;;;;;24.98;9.70;;;6.10;99.90;;;;;;5095807;28;20498;-72
2021/12/09 10:35:15;;;;;;;30.42;12.15;;;6.10;99.90;;;;;;5097355;28;20065;-70
2021/12/09 10:37:47;;;;;;;30.77;11.82;;;6.20;99.90;;;;;;5097107;28;20035;-71
2021/12/09 10:40:21;;;;;;;35.75;11.68;;;6.20;99.90;;;;;;5078160;28;20052;-73
2021/12/09 10:42:53;;;;;;;23.58;8.95;;;6.30;99.90;;;;;;5094806;28;20028;-72
2021/12/09 10:45:32;;;;;;;27.05;10.80;;;6.30;99.90;;;;;;5095571;28;20028;-72
2021/12/09 10:48:33;;;;;;;25.75;10.57;;;6.30;99.90;;;;;;5097024;28;20024;-71
2021/12/09 10:51:12;;;;;;;23.55;9.20;;;6.30;99.90;;;;;;5095559;28;20024;-74
2021/12/09 10:53:47;;;;;;;26.38;9.68;;;6.30;99.90;;;;;;5096385;28;20024;-72
2021/12/09 10:56:23;;;;;;;31.40;11.52;;;6.30;99.90;;;;;;5096598;28;20024;-71
2021/12/09 10:58:49;;;;;;;22.83;9.27;;;6.30;99.90;;;;;;5096479;28;20024;-73
2021/12/09 11:01:20;;;;;;;29.52;11.65;;;6.30;99.90;;;;;;5096342;28;20035;-70
2021/12/09 11:03:55;;;;;;;25.88;10.88;;;6.40;99.90;;;;;;5096224;28;20040;-70
2021/12/09 11:06:41;;;;;;;21.92;9.52;;;6.40;99.90;;;;;;5078224;28;20387;-71
2021/12/09 11:09:09;;;;;;;28.92;12.48;;;6.40;99.90;;;;;;5096045;28;20056;-72
2021/12/09 11:11:54;;;;;;;29.23;12.25;;;6.50;99.90;;;;;;5095655;28;20032;-71
2021/12/09 11:14:33;;;;;;;26.77;9.50;;;6.60;99.90;;;;;;5096061;28;20062;-73
2021/12/09 11:17:03;;;;;;;24.00;11.98;;;6.70;99.90;;;;;;5095985;28;20026;-73
2021/12/09 11:22:01;;;;;;;29.60;10.07;;;6.70;99.90;;;;;;5095802;28;20031;-70
2021/12/09 11:24:35;;;;;;;29.92;13.45;;;6.70;99.90;;;;;;5095765;28;20093;-74
2021/12/09 11:27:04;;;;;;;31.23;11.70;;;6.70;99.90;;;;;;5094371;28;20040;-72
2021/12/09 11:29:37;;;;;;;26.88;12.50;;;6.70;99.90;;;;;;5094335;28;20423;-72
2021/12/09 11:32:09;;;;;;;27.00;12.15;;;6.70;99.90;;;;;;5095943;28;20387;-73
2021/12/09 11:34:50;;;;;;;30.75;12.68;;;6.70;99.90;;;;;;5096122;28;20027;-70
2021/12/09 11:40:26;;;;;;;26.17;11.23;;;6.70;99.90;;;;;;5095527;28;20118;-74
2021/12/09 11:42:57;;;;;;;22.77;10.50;;;6.70;99.90;;;;;;5095510;28;20016;-74
2021/12/09 11:45:27;;;;;;;27.23;12.85;;;6.70;99.90;;;;;;5095489;28;20387;-70
2021/12/09 11:47:54;;;;;;;21.92;9.80;;;6.70;99.90;;;;;;5095416;28;20063;-72
2021/12/09 11:50:25;;;;;;;22.70;11.48;;;6.80;99.90;;;;;;5094271;28;20031;-72
2021/12/09 11:52:52;;;;;;;29.30;12.18;;;6.80;99.90;;;;;;5095165;28;20032;-71
2021/12/09 11:55:23;;;;;;;27.05;12.80;;;6.80;99.90;;;;;;5095529;28;20098;-71
2021/12/09 11:57:56;;;;;;;25.55;11.75;;;6.80;99.90;;;;;;5111295;28;20020;-70
2021/12/09 12:07:17;;;;;;;32.40;16.20;;;6.90;99.90;;;;;;5095177;28;20043;-72
2021/12/09 12:20:58;;;;;;;29.77;13.98;;;7.00;99.90;;;;;;5095001;28;20126;-72
2021/12/09 12:23:54;;;;;;;28.55;12.55;;;6.90;99.90;;;;;;5076847;28;20031;-73
2021/12/09 12:40:13;;;;;;;36.80;16.58;;;6.80;99.90;;;;;;5094534;28;20391;-72
2021/12/09 12:54:02;;;;;;;25.40;11.73;;;6.90;99.90;;;;;;5094088;28;20036;-73
2021/12/09 12:56:39;;;;;;;30.63;14.63;;;6.80;99.90;;;;;;5094457;28;20467;-74
2021/12/09 13:01:31;;;;;;;31.08;13.75;;;6.90;99.90;;;;;;5093994;28;20034;-72
2021/12/09 13:04:05;;;;;;;29.45;13.77;;;6.90;99.90;;;;;;5093124;28;20048;-70
2021/12/09 13:06:46;;;;;;;28.38;12.65;;;6.90;99.90;;;;;;5093661;28;20439;-72
2021/12/09 13:12:09;;;;;;;30.00;13.55;;;6.90;99.90;;;;;;5093945;28;20031;-73
2021/12/09 13:15:08;;;;;;;21.00;10.00;;;6.90;99.90;;;;;;5092933;28;20028;-71
2021/12/09 13:17:47;;;;;;;26.70;10.93;;;7.00;99.90;;;;;;5091841;28;20035;-75
2021/12/09 13:20:34;;;;;;;33.95;14.73;;;7.00;99.90;;;;;;5102729;28;20036;-74
2021/12/09 13:23:26;;;;;;;24.77;12.15;;;7.10;99.90;;;;;;5094217;28;20024;-72
2021/12/09 13:26:12;;;;;;;;;;;7.10;99.90;;;;;;5076075;28;20478;-71
2021/12/09 13:28:57;;;;;;;25.65;12.63;;;7.10;99.90;;;;;;5093705;28;19927;-72
2021/12/09 13:32:17;;;;;;;29.98;13.82;;;7.10;99.90;;;;;;5093787;28;20027;-74
2021/12/09 13:35:04;;;;;;;22.63;11.77;;;7.10;99.90;;;;;;5093831;28;20024;-74
2021/12/09 13:38:05;;;;;;;28.55;13.73;;;7.10;99.90;;;;;;5093679;28;20043;-71
2021/12/09 13:48:48;;;;;;;28.95;12.05;;;7.20;99.90;;;;;;5093586;28;20080;-73
2021/12/09 13:54:24;;;;;;;28.58;13.18;;;7.20;99.90;;;;;;5093371;28;20111;-72
2021/12/09 13:57:02;;;;;;;24.08;10.93;;;7.10;99.90;;;;;;5075661;28;20073;-72
2021/12/09 13:59:30;;;;;;;21.85;10.13;;;7.10;99.90;;;;;;5093349;28;20036;-71
2021/12/09 14:01:58;;;;;;;29.75;14.30;;;7.00;99.90;;;;;;5092154;28;20185;-70